Flight APNVIP5X

  • Submitted By: Krzysztof H. Blaszkow
  • Departure Airport: Cork Airport (EICK)
  • Arrival Airport: Dublin (EIDW)
  • Aircraft: BE58 (EJ-IAWH)
  • Flight Time: 01.05.45
  • Date Submitted: 07/08/2017
  • Route: TISMO W10 SUTEX
  • Status: Accepted
Flight Details
Gross Revenue:
(5 load / € 450.00 per unit
€ 2,250.00
Fuel Cost:
(58.967 fuel used @ 0.45 / unit)
€ 26.54

Additional Log Information:

View Log

[12:27] - Carenado BARON B58 GOLD GREEN
[12:27] - Flight APNVIP5X is ready to depart EICK with a final destination of EIDW.
[12:27] - Parking Brake Applied
[12:27] - Beacon Light ON
[12:27] - Wing Lights ON
[12:27] - Boarding
[12:27] - ADF1 - 284.0
[12:27] - ADF2 - 240.0
[12:27] - NAV1 - 109.90
[12:27] - NAV2 - 110.60
[12:27] - COM1 - 122.80
[12:27] - COM2 - 127.80
[12:27] - Transponder - 6646
[12:29] - Engine 2 Started
[12:29] - Engine 1 Started
[12:30] - Parking Brake Released
[12:30] - Taxi Lights ON 0AGL
[12:30] - Taxiing to Runway
[12:31] - Landing Lights ON 0AGL
[12:31] - Taxi Lights OFF 0AGL
[12:31] - Strobe Lights ON 0AGL
[12:31] - Flaps to position 1
[12:34] - Taking Off with 5 passengers on board
[12:34] - Take off at 97kts, with a pitch of 5deg and 355lbs of fuel on board
[12:34] - Wind Heading 126 | Wind Speed 5kts | Temperature 17 deg C
[12:34] - METAR Departure: EICK 081100Z 13009KT 9999 FEW018 BKN250 18/14 Q1020 NOSIG

[12:34] - Flaps to position 0 at 860ft and 115kts
[12:34] - Climbing to TOC
[12:35] - Gear up at 1801AGL
[12:37] - AutoPilot Engaged at 4380AGL
[12:37] - Landing Lights OFF 4941AGL
[12:38] - NAV1 - 114.60
[12:39] - NAV1 - 114.90
[12:41] - COM1 - 124.52
[12:46] - COM1 - 122.80
[12:48] - TOC reached
[12:48] - Cruise started
[12:50] - COM1 - 124.52
[12:55] - COM1 - 122.80
[12:59] - COM1 - 124.52
[13:00] - COM1 - 122.80
[13:01] - COM1 - 124.52
[13:03] - COM1 - 122.80
[13:06] - COM1 - 124.52
[13:06] - COM1 - 122.80
[13:09] - TOD reached
[13:09] - Descending to destination
[13:10] - COM1 - 124.52
[13:11] - COM1 - 122.80
[13:12] - Landing Lights ON 10111AGL
[13:14] - COM1 - 124.52
[13:16] - COM1 - 118.60
[13:16] - COM1 - 122.80
[13:17] - NAV1 - 111.35
[13:18] - Landing Shortly
[13:22] - COM1 - 118.60
[13:25] - Gear down at 738AGL
[13:25] - Flaps to position 1 at 843ft and 155kts
[13:26] - AutoPilot Disengaged at 183AGL
[13:26] - Landed at -149fpm. With 229lbs of fuel onboard and a pitch angle of 2deg.
[13:26] - Wind Heading 209 | Wind Speed 5kts | Temperature 17 deg C
[13:26] - METAR Arrival: EIDW 081200Z 15008KT 120V180 9999 BKN030 SCT200 18/10 Q1019 NOSIG

[13:26] - Flaps to position 0
[13:27] - Taxiing to Gate
[13:28] - COM1 - 121.80
[13:29] - Landing Lights OFF 3AGL
[13:29] - Taxi Lights ON 3AGL
[13:31] - Parking Brake Applied
[13:31] - Arrived safely at EIDW. We hope you enjoyed your flight!
[13:32] - Taxi Lights OFF 3AGL
[13:32] - Engine 1 Stopped
[13:32] - Engine 2 Stopped
[13:33] - Carenado BARON B58 GOLD GREEN
[13:33] - MaxSim Rate: 1x
[13:33] - SiouxAcars ver: 1.0.1.2

Route Map